Map

Track Data

SID SEASON NUMBER BASIN SUBBASIN NAME ISO_TIME NATURE LAT LON WMO_WIND WMO_PRES WMO_AGENCY TRACK_TYPE DIST2LAND LANDFALL IFLAG USA_AGENCY USA_ATCF_ID USA_LAT USA_LON USA_RECORD USA_STATUS USA_WIND USA_PRES USA_SSHS USA_R34_NE USA_R34_SE USA_R34_SW USA_R34_NW USA_R50_NE USA_R50_SE USA_R50_SW USA_R50_NW USA_R64_NE USA_R64_SE USA_R64_SW USA_R64_NW USA_POCI USA_ROCI USA_RMW USA_EYE TOKYO_LAT TOKYO_LON TOKYO_GRADE TOKYO_WIND TOKYO_PRES TOKYO_R50_DIR TOKYO_R50_LONG TOKYO_R50_SHORT TOKYO_R30_DIR TOKYO_R30_LONG TOKYO_R30_SHORT TOKYO_LAND CMA_LAT CMA_LON CMA_CAT CMA_WIND CMA_PRES HKO_LAT HKO_LON HKO_CAT HKO_WIND HKO_PRES NEWDELHI_LAT NEWDELHI_LON NEWDELHI_GRADE NEWDELHI_WIND NEWDELHI_PRES NEWDELHI_CI NEWDELHI_DP NEWDELHI_POCI REUNION_LAT REUNION_LON REUNION_TYPE REUNION_WIND REUNION_PRES REUNION_TNUM REUNION_CI REUNION_RMW REUNION_R34_NE REUNION_R34_SE REUNION_R34_SW REUNION_R34_NW REUNION_R50_NE REUNION_R50_SE REUNION_R50_SW REUNION_R50_NW REUNION_R64_NE REUNION_R64_SE REUNION_R64_SW REUNION_R64_NW BOM_LAT BOM_LON BOM_TYPE BOM_WIND BOM_PRES BOM_TNUM BOM_CI BOM_RMW BOM_R34_NE BOM_R34_SE BOM_R34_SW BOM_R34_NW BOM_R50_NE BOM_R50_SE BOM_R50_SW BOM_R50_NW BOM_R64_NE BOM_R64_SE BOM_R64_SW BOM_R64_NW BOM_ROCI BOM_POCI BOM_EYE BOM_POS_METHOD BOM_PRES_METHOD NADI_LAT NADI_LON NADI_CAT NADI_WIND NADI_PRES WELLINGTON_LAT WELLINGTON_LON WELLINGTON_WIND WELLINGTON_PRES DS824_LAT DS824_LON DS824_STAGE DS824_WIND DS824_PRES TD9636_LAT TD9636_LON TD9636_STAGE TD9636_WIND TD9636_PRES TD9635_LAT TD9635_LON TD9635_WIND TD9635_PRES TD9635_ROCI NEUMANN_LAT NEUMANN_LON NEUMANN_CLASS NEUMANN_WIND NEUMANN_PRES MLC_LAT MLC_LON MLC_CLASS MLC_WIND MLC_PRES USA_GUST BOM_GUST BOM_GUST_PER REUNION_GUST REUNION_GUST_PER USA_SEAHGT USA_SEARAD_NE USA_SEARAD_SE USA_SEARAD_SW USA_SEARAD_NW STORM_SPEED STORM_DIR
1951069S13145 1951 18 SP EA NOT_NAMED 1951-03-09 23:00:00 NR -12.6000 145.350 1000 bom main 208 208 ______O___O___ -1 -12.5000 145.500 1000 -12.7000 145.200 2 3 84
1951069S13145 1951 18 SP EA NOT_NAMED 1951-03-10 00:00:00 TS -12.5938 145.403 main 208 208 O_____P__OP___ jtwc_sh SH241951 -12.7000 145.300 -1 -12.4637 145.554 -12.7000 145.300 TC -12.6645 145.255 2 4 58
1951069S13145 1951 18 SP EA NOT_NAMED 1951-03-10 03:00:00 TS -12.4734 145.558 main 232 232 P_____P__PP___ SH241951 -12.5275 145.440 -1 -12.3570 145.717 -12.5275 145.440 TC -12.5588 145.422 2 4 54
1951069S13145 1951 18 SP EA NOT_NAMED 1951-03-10 06:00:00 TS -12.3678 145.723 main 245 245 O_____P__OP___ jtwc_sh SH241951 -12.4000 145.600 -1 -12.2594 145.882 -12.4000 145.600 TC -12.4565 145.593 2 4 62
1951069S13145 1951 18 SP EA NOT_NAMED 1951-03-10 09:00:00 TS -12.2963 145.902 main 269 269 P_____P__PP___ SH241951 -12.3425 145.792 -1 -12.1774 146.054 -12.3425 145.792 TC -12.3599 145.773 2 4 70
1951069S13145 1951 18 SP EA NOT_NAMED 1951-03-10 11:00:00 TS -12.2583 146.030 main 276 276 P_____P__PO___ SH241951 -12.3171 145.931 -1 -12.1347 146.172 -12.3171 145.931 TC -12.3000 145.900 2 4 73
1951069S13145 1951 18 SP EA NOT_NAMED 1951-03-10 12:00:00 TS -12.2394 146.095 main 292 280 O_____P__OP___ jtwc_sh SH241951 -12.3000 146.000 -1 -12.1178 146.233 -12.3000 146.000 TC -12.2717 145.966 2 4 70
1951069S13145 1951 18 SP EA NOT_NAMED 1951-03-10 15:00:00 TS -12.1642 146.288 main 280 259 P_____P__PP___ SH241951 -12.1775 146.193 -1 -12.0874 146.423 -12.1775 146.193 TC -12.1994 146.174 2 4 74
1951069S13145 1951 18 SP EA NOT_NAMED 1951-03-10 18:00:00 TS -12.1264 146.496 main 259 249 O_____P__OP___ jtwc_sh SH241951 -12.1000 146.400 -1 -12.0928 146.626 -12.1000 146.400 TC -12.1580 146.396 2 4 91
1951069S13145 1951 18 SP EA NOT_NAMED 1951-03-10 21:00:00 TS -12.1697 146.727 main 259 250 P_____P__PP___ SH241951 -12.1625 146.642 -1 -12.1409 146.844 -12.1625 146.642 TC -12.1631 146.634 2 5 106
1951069S13145 1951 18 SP EA NOT_NAMED 1951-03-10 23:00:00 TS -12.2338 146.890 1000 bom main 250 250 P_____O__PO___ SH241951 -12.2505 146.814 -1 -12.2000 147.000 1000 -12.2505 146.814 TC -12.2000 146.800 2 5 113
1951069S13145 1951 18 SP EA NOT_NAMED 1951-03-11 00:00:00 TS -12.2740 146.974 main 257 254 O_____P__OP___ jtwc_sh SH241951 -12.3000 146.900 -1 -12.2383 147.081 -12.3000 146.900 TC -12.2315 146.887 2 6 118
1951069S13145 1951 18 SP EA NOT_NAMED 1951-03-11 03:00:00 TS -12.4100 147.226 main 261 257 P_____P__PP___ SH241951 -12.4350 147.143 -1 -12.3843 147.335 -12.4350 147.143 TC -12.3702 147.161 2 6 121
1951069S13145 1951 18 SP EA NOT_NAMED 1951-03-11 06:00:00 TS -12.5822 147.491 main 274 272 O_____P__OP___ jtwc_sh SH241951 -12.6000 147.400 -1 -12.5673 147.603 -12.6000 147.400 TC -12.5555 147.444 2 7 125
1951069S13145 1951 18 SP EA NOT_NAMED 1951-03-11 09:00:00 TS -12.7827 147.776 main 292 291 P_____P__PP___ SH241951 -12.8000 147.700 -1 -12.7749 147.878 -12.8000 147.700 TC -12.7624 147.723 2 7 126
1951069S13145 1951 18 SP EA NOT_NAMED 1951-03-11 11:00:00 TS -12.9207 147.966 main 302 302 P_____P__PO___ SH241951 -12.9364 147.903 -1 -12.9207 148.062 -12.9364 147.903 TC -12.9000 147.900 2 7 126
1951069S13145 1951 18 SP EA NOT_NAMED 1951-03-11 12:00:00 TS -12.9874 148.059 main 313 313 O_____P__OP___ jtwc_sh SH241951 -13.0000 148.000 -1 -12.9945 148.155 -13.0000 148.000 TC -12.9645 147.985 2 6 126
1951069S13145 1951 18 SP EA NOT_NAMED 1951-03-11 15:00:00 TS -13.1713 148.327 main 333 331 P_____P__PP___ SH241951 -13.1500 148.273 -1 -13.2135 148.428 -13.1500 148.273 TC -13.1604 148.232 2 6 126
1951069S13145 1951 18 SP EA NOT_NAMED 1951-03-11 18:00:00 TS -13.3493 148.571 main 333 333 O_____P__OP___ jtwc_sh SH241951 -13.3000 148.500 -1 -13.4195 148.693 -13.3000 148.500 TC -13.3481 148.462 2 6 130
1951069S13145 1951 18 SP EA NOT_NAMED 1951-03-11 21:00:00 TS -13.5394 148.781 main 346 346 P_____P__PP___ SH241951 -13.5150 148.665 -1 -13.6000 148.944 -13.5150 148.665 TC -13.5119 148.672 2 5 133
1951069S13145 1951 18 SP EA NOT_NAMED 1951-03-11 23:00:00 TS -13.6503 148.906 998 bom main 363 360 P_____O__PO___ SH241951 -13.6478 148.755 -1 -13.7000 149.100 998 -13.6478 148.755 TC -13.6000 148.800 2 5 131
1951069S13145 1951 18 SP EA NOT_NAMED 1951-03-12 00:00:00 TS -13.6930 148.962 main 360 356 O_____P__OP___ jtwc_sh SH241951 -13.7000 148.800 -1 -13.7302 149.151 -13.7000 148.800 TC -13.6346 148.860 2 4 120
1951069S13145 1951 18 SP EA NOT_NAMED 1951-03-12 03:00:00 TS -13.7690 149.113 main 367 363 P_____P__PP___ SH241951 -13.7800 148.950 -1 -13.8001 149.285 -13.7800 148.950 TC -13.7115 149.024 2 3 112
1951069S13145 1951 18 SP EA NOT_NAMED 1951-03-12 06:00:00 TS -13.8041 149.251 main 360 357 O_____P__OP___ jtwc_sh SH241951 -13.8000 149.100 -1 -13.8427 149.399 -13.8000 149.100 TC -13.7576 149.170 2 3 101
1951069S13145 1951 18 SP EA NOT_NAMED 1951-03-12 09:00:00 TS -13.8185 149.386 main 357 355 P_____P__PP___ SH241951 -13.8000 149.250 -1 -13.8628 149.508 -13.8000 149.250 TC -13.7854 149.308 2 3 95
1951069S13145 1951 18 SP EA NOT_NAMED 1951-03-12 11:00:00 TS -13.8221 149.477 main 355 355 P_____P__PO___ SH241951 -13.7969 149.350 -1 -13.8660 149.586 -13.7969 149.350 TC -13.8000 149.400 2 3 94
1951069S13145 1951 18 SP EA NOT_NAMED 1951-03-12 12:00:00 TS -13.8271 149.520 main 355 353 O_____P__OP___ jtwc_sh SH241951 -13.8000 149.400 -1 -13.8652 149.629 -13.8000 149.400 TC -13.8189 149.429 2 3 101
1951069S13145 1951 18 SP EA NOT_NAMED 1951-03-12 15:00:00 TS -13.8546 149.652 main 362 360 P_____P__PP___ SH241951 -13.8500 149.542 -1 -13.8547 149.774 -13.8500 149.542 TC -13.8731 149.507 2 3 100
1951069S13145 1951 18 SP EA NOT_NAMED 1951-03-12 18:00:00 TS -13.8760 149.811 main 360 359 O_____P__OP___ jtwc_sh SH241951 -13.9000 149.700 -1 -13.8362 149.960 -13.9000 149.700 TC -13.9117 149.614 2 3 95
1951069S13145 1951 18 SP EA NOT_NAMED 1951-03-12 21:00:00 TS -13.8817 149.999 main 359 358 P_____P__PP___ SH241951 -13.9298 149.840 -1 -13.8142 150.201 -13.9298 149.840 TC -13.9196 149.803 2 4 89
1951069S13145 1951 18 SP EA NOT_NAMED 1951-03-12 23:00:00 TS -13.8688 150.175 1000 bom main 358 358 P_____O__PO___ SH241951 -13.9196 149.991 -1 -13.8000 150.400 1000 -13.9196 149.991 TC -13.9000 150.000 2 6 84
1951069S13145 1951 18 SP EA NOT_NAMED 1951-03-13 00:00:00 TS -13.8524 150.294 main 358 347 O_____P__OP___ jtwc_sh SH241951 -13.9000 150.100 -1 -13.7918 150.531 -13.9000 150.100 TC -13.8701 150.137 2 9 79
1951069S13145 1951 18 SP EA NOT_NAMED 1951-03-13 03:00:00 TS -13.7630 150.759 main 349 338 P_____P__PP___ SH241951 -13.7650 150.583 -1 -13.7602 150.973 -13.7650 150.583 TC -13.7436 150.644 2 10 79
1951069S13145 1951 18 SP EA NOT_NAMED 1951-03-13 06:00:00 TS -13.6546 151.322 main 349 342 O_____P__OP___ jtwc_sh SH241951 -13.6000 151.200 -1 -13.7229 151.475 -13.6000 151.200 TC -13.5932 151.246 2 11 80
1951069S13145 1951 18 SP EA NOT_NAMED 1951-03-13 09:00:00 TS -13.5667 151.923 main 360 358 P_____P__PP___ SH241951 -13.4776 151.850 -1 -13.6859 152.022 -13.4776 151.850 TC -13.4595 151.884 2 12 82
1951069S13145 1951 18 SP EA NOT_NAMED 1951-03-13 11:00:00 TS -13.5245 152.331 main 368 368 P_____P__PO___ SH241951 -13.4193 152.290 -1 -13.6644 152.403 -13.4193 152.290 TC -13.4000 152.300 2 12 85
1951069S13145 1951 18 SP EA NOT_NAMED 1951-03-13 12:00:00 TS -13.5115 152.529 main 379 379 O_____P__OP___ jtwc_sh SH241951 -13.4000 152.500 -1 -13.6553 152.597 -13.4000 152.500 TC -13.3882 152.486 2 11 88
1951069S13145 1951 18 SP EA NOT_NAMED 1951-03-13 15:00:00 TS -13.4944 153.100 main 416 416 P_____P__PP___ SH241951 -13.3698 153.072 -1 -13.6373 153.186 -13.3698 153.072 TC -13.3894 153.037 2 11 90
1951069S13145 1951 18 SP EA NOT_NAMED 1951-03-13 18:00:00 TS -13.5180 153.649 main 452 452 O_____P__OP___ jtwc_sh SH241951 -13.4000 153.600 -1 -13.6383 153.772 -13.4000 153.600 TC -13.4382 153.570 2 11 95
1951069S13145 1951 18 SP EA NOT_NAMED 1951-03-13 21:00:00 TS -13.5776 154.185 main 507 507 P_____P__PP___ SH241951 -13.4774 154.122 -1 -13.6649 154.339 -13.4774 154.122 TC -13.5253 154.078 2 10 98
1951069S13145 1951 18 SP EA NOT_NAMED 1951-03-13 23:00:00 TS -13.6378 154.524 1000 bom main 532 532 P_____O__PO___ SH241951 -13.5557 154.447 -1 -13.7000 154.700 1000 -13.5557 154.447 TC -13.6000 154.400 2 10 101
1951069S13145 1951 18 SP EA NOT_NAMED 1951-03-14 00:00:00 TS -13.6717 154.684 main 556 556 O_____P__OP___ jtwc_sh SH241951 -13.6000 154.600 -1 -13.7245 154.863 -13.6000 154.600 TC -13.6339 154.556 2 9 104
1951069S13145 1951 18 SP EA NOT_NAMED 1951-03-14 03:00:00 TS -13.7861 155.131 main 597 597 P_____P__PP___ SH241951 -13.7349 155.015 -1 -13.8175 155.340 -13.7349 155.015 TC -13.7570 155.004 2 9 107
1951069S13145 1951 18 SP EA NOT_NAMED 1951-03-14 06:00:00 TS -13.9286 155.554 main 640 633 O_____P__OP___ jtwc_sh SH241951 -13.9000 155.400 -1 -13.9378 155.799 -13.9000 155.400 TC -13.9071 155.426 2 9 111
1951069S13145 1951 18 SP EA NOT_NAMED 1951-03-14 09:00:00 TS -14.0989 155.973 main 634 627 P_____P__PP___ SH241951 -14.0999 155.800 -1 -14.0827 156.239 -14.0999 155.800 TC -14.0778 155.833 2 9 113
1951069S13145 1951 18 SP EA NOT_NAMED 1951-03-14 11:00:00 TS -14.2202 156.247 main 629 622 P_____P__PO___ SH241951 -14.2364 156.067 -1 -14.1914 156.521 -14.2364 156.067 TC -14.2000 156.100 2 9 114
1951069S13145 1951 18 SP EA NOT_NAMED 1951-03-14 12:00:00 TS -14.2797 156.384 main 625 609 O_____P__OP___ jtwc_sh SH241951 -14.3000 156.200 -1 -14.2492 156.658 -14.3000 156.200 TC -14.2575 156.242 2 9 113
1951069S13145 1951 18 SP EA NOT_NAMED 1951-03-14 15:00:00 TS -14.4457 156.789 main 609 607 P_____P__PP___ SH241951 -14.4424 156.600 -1 -14.4346 157.056 -14.4424 156.600 TC -14.4399 156.663 2 8 114
1951069S13145 1951 18 SP EA NOT_NAMED 1951-03-14 18:00:00 TS -14.6276 157.183 main 607 607 O_____P__OP___ jtwc_sh SH241951 -14.6000 157.000 -1 -14.6360 157.430 -14.6000 157.000 TC -14.6374 157.072 2 9 118
1951069S13145 1951 18 SP EA NOT_NAMED 1951-03-14 21:00:00 TS -14.8492 157.565 main 608 608 P_____P__PP___ SH241951 -14.8350 157.407 -1 -14.8508 157.781 -14.8350 157.407 TC -14.8500 157.459 2 9 122
1951069S13145 1951 18 SP EA NOT_NAMED 1951-03-14 23:00:00 TS -15.0093 157.808 1000 bom main 621 617 P_____O__PO___ SH241951 -15.0114 157.672 -1 -15.0000 158.000 1000 -15.0114 157.672 TC -15.0000 157.700 2 8 124
1951069S13145 1951 18 SP EA NOT_NAMED 1951-03-15 00:00:00 TS -15.0853 157.927 main 628 624 O_____P__OP___ jtwc_sh SH241951 -15.1000 157.800 -1 -15.0502 158.114 -15.1000 157.800 TC -15.0765 157.820 2 8 123
1951069S13145 1951 18 SP EA NOT_NAMED 1951-03-15 03:00:00 TS -15.2981 158.277 main 630 624 P_____P__PP___ SH241951 -15.3500 158.173 -1 -15.2021 158.441 -15.3500 158.173 TC -15.3173 158.159 2 8 124
1951069S13145 1951 18 SP EA NOT_NAMED 1951-03-15 06:00:00 TS -15.5176 158.594 main 630 627 O_____P__OP___ jtwc_sh SH241951 -15.6000 158.500 -1 -15.3645 158.742 -15.6000 158.500 TC -15.5699 158.466 2 7 128
1951069S13145 1951 18 SP EA NOT_NAMED 1951-03-15 09:00:00 TS -15.7459 158.874 main 632 632 P_____P__PP___ SH241951 -15.8500 158.780 -1 -15.5481 159.019 -15.8500 158.780 TC -15.8280 158.739 2 7 132
1951069S13145 1951 18 SP EA NOT_NAMED 1951-03-15 11:00:00 TS -15.9044 159.037 main 646 641 P_____P__PO___ SH241951 -16.0167 158.933 -1 -15.6876 159.191 -16.0167 158.933 TC -16.0000 158.900 2 7 136
1951069S13145 1951 18 SP EA NOT_NAMED 1951-03-15 12:00:00 TS -15.9819 159.112 main 651 646 O_____P__OP___ jtwc_sh SH241951 -16.1000 159.000 -1 -15.7636 159.272 -16.1000 159.000 TC -16.0660 158.974 2 6 141
1951069S13145 1951 18 SP EA NOT_NAMED 1951-03-15 15:00:00 TS -16.2237 159.305 main 662 637 P_____P__PP___ SH241951 -16.3499 159.158 -1 -16.0218 159.502 -16.3499 159.158 TC -16.2570 159.168 2 6 146
1951069S13145 1951 18 SP EA NOT_NAMED 1951-03-15 18:00:00 TS -16.4892 159.475 main 637 606 O_____P__OP___ jtwc_sh SH241951 -16.6000 159.300 -1 -16.3332 159.708 -16.6000 159.300 TC -16.4716 159.335 2 6 149
1951069S13145 1951 18 SP EA NOT_NAMED 1951-03-15 21:00:00 TS -16.7728 159.651 main 598 576 P_____P__PP___ SH241951 -16.8050 159.493 -1 -16.7088 159.891 -16.8050 159.493 TC -16.7533 159.491 2 7 151
1951069S13145 1951 18 SP EA NOT_NAMED 1951-03-15 23:00:00 TS -17.0044 159.766 1000 bom main 576 569 P_____O__PO___ SH241951 -16.9824 159.631 -1 -17.0000 160.000 1000 -16.9824 159.631 TC -17.0000 159.600 2 8 155
1951069S13145 1951 18 SP EA NOT_NAMED 1951-03-16 00:00:00 TS -17.1420 159.831 main 569 517 O_____P__OP___ jtwc_sh SH241951 -17.1000 159.700 -1 -17.1595 160.076 -17.1000 159.700 TC -17.1507 159.681 2 10 158
1951069S13145 1951 18 SP MM NOT_NAMED 1951-03-16 03:00:00 TS -17.6495 160.036 main 517 462 P_____P__PP___ SH241951 -17.5825 159.907 -1 -17.6861 160.290 -17.5825 159.907 TC -17.6788 159.938 2 12 162
1951069S13145 1951 18 SP MM NOT_NAMED 1951-03-16 06:00:00 TS -18.2525 160.216 main 457 408 O_____P__OP___ jtwc_sh SH241951 -18.2000 160.100 -1 -18.2718 160.468 -18.2000 160.100 TC -18.2918 160.177 2 13 166
1951069S13145 1951 18 SP MM NOT_NAMED 1951-03-16 09:00:00 TS -18.9066 160.361 main 408 392 P_____P__PP___ SH241951 -18.8775 160.287 -1 -18.9005 160.588 -18.8775 160.287 TC -18.9520 160.348 2 14 170
1951069S13145 1951 18 SP MM NOT_NAMED 1951-03-16 11:00:00 TS -19.3625 160.416 main 389 384 P_____P__PO___ SH241951 -19.3588 160.375 -1 -19.3356 160.625 -19.3588 160.375 TC -19.4000 160.400 2 14 174
1951069S13145 1951 18 SP MM NOT_NAMED 1951-03-16 12:00:00 TS -19.5917 160.428 main 384 377 O_____P__OP___ jtwc_sh SH241951 -19.6000 160.400 -1 -19.5561 160.629 -19.6000 160.400 TC -19.6232 160.409 2 14 179
1951069S13145 1951 18 SP MM NOT_NAMED 1951-03-16 14:00:00 TS -20.0511 160.427 bom main 376 375 P_____O__PP___ SH241951 -20.0774 160.431 -1 -20.0000 160.600 -20.0774 160.431 TC -20.0796 160.390 2 14 181
1951069S13145 1951 18 SP MM NOT_NAMED 1951-03-16 15:00:00 TS -20.2815 160.411 main 375 375 P_____P__PP___ SH241951 -20.3148 160.425 -1 -20.2261 160.577 -20.3148 160.425 TC -20.3097 160.362 2 14 189
1951069S13145 1951 18 SP MM NOT_NAMED 1951-03-16 18:00:00 TS -20.9602 160.284 main 392 392 O_____P__OP___ jtwc_sh SH241951 -21.0000 160.300 -1 -20.9159 160.442 -21.0000 160.300 TC -20.9899 160.203 2 14 195
1951069S13145 1951 18 SP MM NOT_NAMED 1951-03-16 21:00:00 TS -21.6042 160.040 main 439 439 P_____P__PP___ SH241951 -21.6449 160.018 -1 -21.5866 160.208 -21.6449 160.018 TC -21.6235 159.936 2 14 203
1951069S13145 1951 18 SP EA NOT_NAMED 1951-03-16 23:00:00 TS -21.9939 159.816 996 bom main 475 475 P_____O__PO___ SH241951 -22.0280 159.750 -1 -22.0000 160.000 996 4 -22.0280 159.750 TC -22.0000 159.700 2 13 210
1951069S13145 1951 18 SP EA NOT_NAMED 1951-03-17 00:00:00 TS -22.1706 159.692 main 493 493 O_____P__OP___ jtwc_sh SH241951 -22.2000 159.600 -1 -22.1861 159.883 -22.2000 159.600 TC -22.1668 159.578 2 12 218
1951069S13145 1951 18 SP EA NOT_NAMED 1951-03-17 03:00:00 TS -22.6407 159.276 main 550 550 P_____P__PP___ SH241951 -22.6449 159.137 -1 -22.6863 159.454 -22.6449 159.137 TC -22.6087 159.138 2 12 224
1951069S13145 1951 18 SP EA NOT_NAMED 1951-03-17 06:00:00 TS -23.0332 158.779 main 591 527 O_____P__OP___ jtwc_sh SH241951 -23.0000 158.600 -1 -23.1086 158.927 -23.0000 158.600 TC -22.9795 158.607 2 12 233
1951069S13145 1951 18 SP EA NOT_NAMED 1951-03-17 09:00:00 TS -23.3756 158.230 main 518 481 P_____P__PP___ SH241951 -23.3147 158.030 -1 -23.4645 158.328 -23.3147 158.030 TC -23.3015 158.015 2 12 238
1951069S13145 1951 18 SP EA NOT_NAMED 1951-03-17 11:00:00 TS -23.5810 157.835 main 472 458 P_____P__PO___ SH241951 -23.5051 157.616 -1 -23.6706 157.899 -23.5051 157.616 TC -23.5000 157.600 2 13 241
1951069S13145 1951 18 SP EA NOT_NAMED 1951-03-17 12:00:00 TS -23.6827 157.630 main 449 380 O_____P__OP___ jtwc_sh SH241951 -23.6000 157.400 -1 -23.7656 157.680 -23.6000 157.400 TC -23.6102 157.389 2 13 243
1951069S13145 1951 18 SP EA NOT_NAMED 1951-03-17 15:00:00 TS -23.9817 156.980 main 380 316 P_____P__PP___ SH241951 -23.9076 156.700 -1 -24.0239 157.009 -23.9076 156.700 TC -23.9210 156.724 2 13 244
1951069S13145 1951 18 SP EA NOT_NAMED 1951-03-17 18:00:00 TS -24.2546 156.319 main 303 238 O_____P__OP___ jtwc_sh SH241951 -24.2000 156.000 -1 -24.2520 156.340 -24.2000 156.000 TC -24.2012 156.045 2 13 246
1951069S13145 1951 18 SP EA NOT_NAMED 1951-03-17 21:00:00 TS -24.5030 155.684 main 238 196 P_____P__PP___ SH241951 -24.4724 155.355 -1 -24.4627 155.700 -24.4724 155.355 TC -24.4506 155.395 2 12 247
1951069S13145 1951 18 SP EA NOT_NAMED 1951-03-17 23:00:00 TS -24.6518 155.289 1000 bom main 194 184 P_____O__PO___ SH241951 -24.6307 154.972 -1 -24.6000 155.300 1000 -24.6307 154.972 TC -24.6000 155.000 2 11 247
1951069S13145 1951 18 SP EA NOT_NAMED 1951-03-18 00:00:00 TS -24.7131 155.127 main 174 131 O_____P__OP___ jtwc_sh SH241951 -24.7000 154.800 -1 -24.6342 155.216 -24.7000 154.800 TC -24.6674 154.831 2 9 249
1951069S13145 1951 18 SP EA NOT_NAMED 1951-03-18 03:00:00 TS -24.8644 154.693 main 131 90 P_____P__PP___ SH241951 -24.8570 154.377 -1 -24.7146 154.996 -24.8570 154.377 TC -24.8466 154.376 2 8 249
1951069S13145 1951 18 SP EA NOT_NAMED 1951-03-18 06:00:00 TS -25.0082 154.272 main 90 46 O_____P__OP___ jtwc_sh SH241951 -25.0000 154.000 -1 -24.8219 154.721 -25.0000 154.000 TC -25.0087 153.970 2 9 249
1951069S13145 1951 18 SP EA NOT_NAMED 1951-03-18 09:00:00 TS -25.1783 153.780 main 46 15 P_____P__PP___ SH241951 -25.1849 153.565 -1 -25.0321 154.256 -25.1849 153.565 TC -25.1756 153.576 2 10 248
1951069S13145 1951 18 SP EA NOT_NAMED 1951-03-18 11:00:00 TS -25.3207 153.412 main 15 0 P_____P__PO___ SH241951 -25.3249 153.258 -1 -25.2662 153.772 -25.3249 153.258 TC -25.3000 153.300 2 11 247
1951069S13145 1951 18 SP EA NOT_NAMED 1951-03-18 12:00:00 TS -25.4042 153.204 main 0 0 O_____P__OP___ jtwc_sh SH241951 -25.4000 153.100 -1 -25.4194 153.462 -25.4000 153.100 TC -25.3735 153.130 2 13 245
1951069S13145 1951 18 SP EA NOT_NAMED 1951-03-18 13:00:00 TS -25.5013 152.982 bom main 0 0 P_____O__PP___ SH241951 -25.4776 152.936 -1 -25.6000 153.100 -25.4776 152.936 TC -25.4500 152.955 2 14 243
1951069S13145 1951 18 SP EA NOT_NAMED 1951-03-18 13:30:00 TS -25.5562 152.868 bom main 0 0 P_____O__PP___ SH241951 -25.5178 152.853 -1 -25.7000 152.900 -25.5178 152.853 TC -25.4893 152.867 2 13 242
1951069S13145 1951 18 SP EA NOT_NAMED 1951-03-18 15:00:00 TS -25.7097 152.549 main 0 0 P_____P__PP___ SH241951 -25.6425 152.600 -1 -25.9434 152.398 -25.6425 152.600 TC -25.6106 152.598 2 11 242
1951069S13145 1951 18 SP EA NOT_NAMED 1951-03-18 18:00:00 TS -25.9488 152.035 main 0 0 O_____P__OP___ jtwc_sh SH241951 -25.9000 152.100 -1 -26.1910 151.822 -25.9000 152.100 TC -25.8646 152.067 2 10 242
1951069S13145 1951 18 SP EA NOT_NAMED 1951-03-18 21:00:00 TS -26.1544 151.601 main 0 0 P_____P__PP___ SH241951 -26.1501 151.605 -1 -26.2288 151.629 -26.1501 151.605 TC -26.1260 151.579 2 9 241
1951069S13145 1951 18 SP EA NOT_NAMED 1951-03-18 23:00:00 TS -26.3026 151.335 1000 bom main 0 0 P_____O__PO___ SH241951 -26.3167 151.319 -1 -26.2000 151.600 1000 -26.3167 151.319 TC -26.3000 151.300 2 9 237
1951069S13145 1951 18 SP EA NOT_NAMED 1951-03-19 00:00:00 TS -26.3914 151.199 main 0 0 O________OP___ jtwc_sh SH241951 -26.4000 151.200 -1 -26.4000 151.200 TC -26.3742 151.196 2 7 225
1951069S13145 1951 18 SP EA NOT_NAMED 1951-03-19 03:00:00 TS -26.6310 150.963 main 0 0 P________PP___ SH241951 -26.6497 150.970 -1 -26.6497 150.970 TC -26.5936 150.948 2 6 217
1951069S13145 1951 18 SP EA NOT_NAMED 1951-03-19 06:00:00 TS -26.8753 150.785 main 0 0 O________OP___ jtwc_sh SH241951 -26.9000 150.800 -1 -26.9000 150.800 TC -26.8258 150.755 2 6 216
1951069S13145 1951 18 SP EA NOT_NAMED 1951-03-19 09:00:00 TS -27.1157 150.573 main 0 0 P________PP___ SH241951 -27.1273 150.580 -1 -27.1273 150.580 TC -27.0924 150.559 2 7 219
1951069S13145 1951 18 SP EA NOT_NAMED 1951-03-19 11:00:00 TS -27.2996 150.402 main 0 0 P________PO___ SH241951 -27.2994 150.403 -1 -27.2994 150.403 TC -27.3000 150.400 2 8 220
1951069S13145 1951 18 SP EA NOT_NAMED 1951-03-19 12:00:00 TS -27.4059 150.302 main 0 0 O________OP___ jtwc_sh SH241951 -27.4000 150.300 -1 -27.4000 150.300 TC -27.4148 150.306 2 9 220
1951069S13145 1951 18 SP EA NOT_NAMED 1951-03-19 15:00:00 TS -27.7848 149.948 main 0 0 P________PP___ SH241951 -27.7704 149.928 -1 -27.7704 149.928 TC -27.7993 149.967 2 11 220
1951069S13145 1951 18 SP EA NOT_NAMED 1951-03-19 18:00:00 TS -28.2178 149.537 main 0 0 O________OP___ jtwc_sh SH241951 -28.2000 149.500 -1 -28.2000 149.500 TC -28.2297 149.561 2 12 219
1951069S13145 1951 18 SP EA NOT_NAMED 1951-03-19 21:00:00 NR -28.6879 149.112 main 0 0 __________P___ SH241951 -1 TC -28.6879 149.112 2 12 220
1951069S13145 1951 18 SP EA NOT_NAMED 1951-03-19 23:00:00 NR -29.0000 148.800 main 0 __________O___ SH241951 -1 TC -29.0000 148.800 2 12 221

Digital Typhoon Data and Search

About IBTrACS Database

This database is a web-friendly format of International Best Track Archive for Climate Stewardship (IBTrACS), a global best track data archive curated by NOAA dating back to 1842.

Updated: 2021-12-06